CSN670 UHMG-UHPL

Flight info

Callsign CSN670
Flight time 1h 5m
Altitude 8000
Route BEBOR DCT LEMBA
Aircraft C208/L-SDFGR/C

Departure

Time 2026-05-07 04:31
Airport Chaybukha Airport (UHMG)

Arrival

Time 2026-05-07 05:36
Airport Palana Airport (UHPL)
Time Latitude Longitude Altitude Speed Heading
2026-05-07 04:31 61.61529 160.40134 7931 ft 167 kts 188°
2026-05-07 04:31 61.60412 160.39397 7933 ft 168 kts 188°
2026-05-07 04:31 61.59287 160.38655 7935 ft 169 kts 188°
2026-05-07 04:31 61.58163 160.37915 7931 ft 169 kts 188°
2026-05-07 04:32 61.57043 160.37177 7931 ft 169 kts 188°
2026-05-07 04:32 61.55915 160.36437 7927 ft 169 kts 188°
2026-05-07 04:32 61.54792 160.35696 7926 ft 169 kts 188°
2026-05-07 04:32 61.53665 160.34957 7926 ft 169 kts 188°
2026-05-07 04:33 61.52561 160.34232 7927 ft 170 kts 188°
2026-05-07 04:33 61.51407 160.33476 7927 ft 170 kts 188°
2026-05-07 04:33 61.50292 160.32747 7927 ft 169 kts 188°
2026-05-07 04:33 61.49155 160.32004 7919 ft 168 kts 188°
2026-05-07 04:34 61.48040 160.31272 7921 ft 168 kts 188°
2026-05-07 04:34 61.46920 160.30541 7919 ft 169 kts 188°
2026-05-07 04:34 61.45806 160.29821 7921 ft 171 kts 188°
2026-05-07 04:34 61.44668 160.29077 7920 ft 172 kts 188°
2026-05-07 04:35 61.43520 160.28323 7909 ft 172 kts 188°
2026-05-07 04:35 61.42770 160.27825 7918 ft 171 kts 188°
2026-05-07 04:35 61.41247 160.26835 7909 ft 170 kts 188°
2026-05-07 04:35 61.40116 160.26102 7911 ft 169 kts 188°
2026-05-07 04:36 61.39007 160.25379 7913 ft 169 kts 188°
2026-05-07 04:36 61.37884 160.24652 7914 ft 169 kts 188°
2026-05-07 04:36 61.36762 160.23921 7914 ft 169 kts 187°
2026-05-07 04:36 61.35638 160.23190 7912 ft 169 kts 187°
2026-05-07 04:37 61.34514 160.22466 7919 ft 169 kts 187°
2026-05-07 04:37 61.33383 160.21733 7917 ft 170 kts 188°
2026-05-07 04:37 61.32264 160.21005 7916 ft 171 kts 187°
2026-05-07 04:37 61.31119 160.20265 7908 ft 172 kts 187°
2026-05-07 04:38 61.30344 160.19766 7911 ft 172 kts 187°
2026-05-07 04:38 61.29214 160.19036 7915 ft 172 kts 187°
2026-05-07 04:38 61.28069 160.18298 7914 ft 172 kts 187°
2026-05-07 04:38 61.26925 160.17557 7909 ft 172 kts 187°
2026-05-07 04:39 61.25780 160.16822 7907 ft 172 kts 187°
2026-05-07 04:39 61.24636 160.16084 7911 ft 171 kts 187°
2026-05-07 04:39 61.23498 160.15345 7905 ft 170 kts 187°
2026-05-07 04:39 61.22370 160.14620 7902 ft 169 kts 187°
2026-05-07 04:40 61.21250 160.13899 7903 ft 168 kts 187°
2026-05-07 04:40 61.20130 160.13184 7907 ft 168 kts 187°
2026-05-07 04:40 61.19027 160.12481 7907 ft 168 kts 187°
2026-05-07 04:40 61.17891 160.11752 7904 ft 167 kts 187°
2026-05-07 04:41 61.16783 160.11035 7908 ft 167 kts 187°
2026-05-07 04:41 61.15666 160.10326 7898 ft 168 kts 187°
2026-05-07 04:41 61.14553 160.09610 7896 ft 166 kts 187°
2026-05-07 04:41 61.13464 160.08914 7900 ft 166 kts 187°
2026-05-07 04:42 61.12352 160.08207 7899 ft 167 kts 187°
2026-05-07 04:42 61.11235 160.07495 7899 ft 167 kts 186°
2026-05-07 04:42 61.10125 160.06783 7904 ft 166 kts 186°
2026-05-07 04:42 61.09010 160.06073 7890 ft 167 kts 186°
2026-05-07 04:43 61.07914 160.05375 7895 ft 166 kts 186°
2026-05-07 04:43 61.06795 160.04672 7893 ft 168 kts 187°
2026-05-07 04:43 61.05671 160.03950 7895 ft 169 kts 187°
2026-05-07 04:43 61.04562 160.03235 7894 ft 169 kts 186°
2026-05-07 04:44 61.03437 160.02529 7895 ft 169 kts 186°
2026-05-07 04:44 61.02308 160.01813 7890 ft 169 kts 186°
2026-05-07 04:44 61.01179 160.01098 7891 ft 169 kts 187°
2026-05-07 04:44 61.00053 160.00381 7892 ft 169 kts 187°
2026-05-07 04:45 60.98935 159.99677 7890 ft 170 kts 187°
2026-05-07 04:45 60.97803 159.98956 7887 ft 169 kts 186°
2026-05-07 04:45 60.96677 159.98246 7889 ft 169 kts 186°
2026-05-07 04:45 60.95556 159.97533 7883 ft 169 kts 187°
2026-05-07 04:46 60.94427 159.96826 7884 ft 169 kts 186°
2026-05-07 04:46 60.93304 159.96120 7883 ft 168 kts 187°
2026-05-07 04:46 60.92182 159.95411 7882 ft 168 kts 186°
2026-05-07 04:46 60.91082 159.94716 7879 ft 167 kts 186°
2026-05-07 04:47 60.89966 159.94011 7882 ft 167 kts 186°
2026-05-07 04:47 60.88851 159.93311 7882 ft 167 kts 186°
2026-05-07 04:47 60.87739 159.92613 7881 ft 167 kts 186°
2026-05-07 04:47 60.86623 159.91911 7879 ft 167 kts 186°
2026-05-07 04:48 60.85513 159.91215 7879 ft 167 kts 186°
2026-05-07 04:48 60.84401 159.90516 7875 ft 167 kts 186°
2026-05-07 04:48 60.83294 159.89825 7876 ft 167 kts 186°
2026-05-07 04:48 60.82183 159.89132 7872 ft 167 kts 186°
2026-05-07 04:49 60.81074 159.88433 7875 ft 167 kts 186°
2026-05-07 04:49 60.79965 159.87737 7873 ft 167 kts 186°
2026-05-07 04:49 60.78852 159.87042 7872 ft 166 kts 186°
2026-05-07 04:49 60.77738 159.86344 7869 ft 166 kts 186°
2026-05-07 04:50 60.76647 159.85670 7874 ft 166 kts 185°
2026-05-07 04:50 60.75523 159.84972 7868 ft 166 kts 185°
2026-05-07 04:50 60.74429 159.84284 7866 ft 167 kts 186°
2026-05-07 04:50 60.73316 159.83595 7864 ft 166 kts 185°
2026-05-07 04:51 60.72214 159.82911 7865 ft 166 kts 186°
2026-05-07 04:51 60.71102 159.82218 7860 ft 166 kts 186°
2026-05-07 04:51 60.69995 159.81528 7861 ft 166 kts 185°
2026-05-07 04:51 60.68883 159.80840 7861 ft 166 kts 186°
2026-05-07 04:52 60.67771 159.80154 7860 ft 166 kts 186°
2026-05-07 04:52 60.66666 159.79465 7855 ft 166 kts 185°
2026-05-07 04:52 60.65572 159.78785 7859 ft 166 kts 185°
2026-05-07 04:52 60.64466 159.78102 7857 ft 166 kts 184°
2026-05-07 04:53 60.63361 159.77423 7855 ft 166 kts 185°
2026-05-07 04:53 60.62253 159.76735 7853 ft 166 kts 185°
2026-05-07 04:53 60.61149 159.76046 7854 ft 166 kts 185°
2026-05-07 04:53 60.60043 159.75372 7856 ft 165 kts 185°
2026-05-07 04:54 60.58953 159.74707 7850 ft 166 kts 185°
2026-05-07 04:54 60.57843 159.74025 7852 ft 166 kts 185°
2026-05-07 04:54 60.56742 159.73341 7849 ft 166 kts 186°
2026-05-07 04:54 60.55638 159.72656 7850 ft 165 kts 185°
2026-05-07 04:55 60.54537 159.71973 7849 ft 165 kts 185°
2026-05-07 04:55 60.53435 159.71302 7844 ft 165 kts 185°
2026-05-07 04:55 60.52333 159.70636 7843 ft 165 kts 185°
2026-05-07 04:55 60.51235 159.69950 7841 ft 165 kts 186°
2026-05-07 04:56 60.50146 159.69279 7842 ft 165 kts 184°
2026-05-07 04:56 60.49042 159.68606 7845 ft 165 kts 186°
2026-05-07 04:56 60.47940 159.67930 7842 ft 165 kts 185°
2026-05-07 04:56 60.46837 159.67259 7840 ft 165 kts 185°
2026-05-07 04:57 60.45735 159.66591 7835 ft 165 kts 185°
2026-05-07 04:57 60.44634 159.65925 7836 ft 165 kts 184°
2026-05-07 04:57 60.43535 159.65243 7835 ft 165 kts 184°
2026-05-07 04:57 60.42434 159.64571 7832 ft 164 kts 184°
2026-05-07 04:58 60.41332 159.63901 7832 ft 165 kts 185°
2026-05-07 04:58 60.40243 159.63231 7831 ft 165 kts 186°
2026-05-07 04:58 60.39140 159.62557 7829 ft 164 kts 184°
2026-05-07 04:58 60.38040 159.62014 7832 ft 158 kts 174°
2026-05-07 04:59 60.36957 159.62098 7828 ft 155 kts 168°
2026-05-07 04:59 60.35890 159.62150 7831 ft 155 kts 169°
2026-05-07 04:59 60.34814 159.62191 7825 ft 155 kts 169°
2026-05-07 04:59 60.33737 159.62238 7822 ft 155 kts 168°
2026-05-07 05:00 60.32653 159.62305 7823 ft 155 kts 168°
2026-05-07 05:00 60.31583 159.62357 7824 ft 155 kts 168°
2026-05-07 05:00 60.30499 159.62411 7822 ft 155 kts 169°
2026-05-07 05:00 60.29415 159.62473 7815 ft 155 kts 169°
2026-05-07 05:01 60.28335 159.62525 7817 ft 155 kts 168°
2026-05-07 05:01 60.27253 159.62590 7827 ft 156 kts 168°
2026-05-07 05:01 60.26161 159.62644 7820 ft 156 kts 170°
2026-05-07 05:01 60.25092 159.62690 7822 ft 156 kts 168°
2026-05-07 05:02 60.24006 159.62749 7814 ft 156 kts 169°
2026-05-07 05:02 60.22916 159.62803 7811 ft 156 kts 169°
2026-05-07 05:02 60.21825 159.62851 7818 ft 156 kts 169°
2026-05-07 05:02 60.20750 159.62918 7812 ft 156 kts 169°
2026-05-07 05:03 60.19648 159.62970 7810 ft 156 kts 169°
2026-05-07 05:03 60.18570 159.63020 7805 ft 157 kts 169°
2026-05-07 05:03 60.17477 159.63078 7806 ft 157 kts 169°
2026-05-07 05:03 60.16382 159.63130 7810 ft 157 kts 169°
2026-05-07 05:04 60.15292 159.63195 7800 ft 157 kts 169°
2026-05-07 05:04 60.14196 159.63245 7808 ft 157 kts 169°
2026-05-07 05:04 60.13106 159.63299 7804 ft 157 kts 169°
2026-05-07 05:04 60.12008 159.63359 7802 ft 157 kts 169°
2026-05-07 05:05 60.10913 159.63407 7800 ft 157 kts 169°
2026-05-07 05:05 60.09812 159.63461 7798 ft 157 kts 169°
2026-05-07 05:05 60.08733 159.63519 7797 ft 157 kts 170°
2026-05-07 05:05 60.07638 159.63575 7797 ft 157 kts 170°
2026-05-07 05:06 60.06541 159.63635 7793 ft 158 kts 170°
2026-05-07 05:06 60.05440 159.63688 7793 ft 158 kts 170°
2026-05-07 05:06 60.04336 159.63741 7794 ft 158 kts 171°
2026-05-07 05:06 60.03234 159.63798 7785 ft 158 kts 170°
2026-05-07 05:07 60.02150 159.63853 7786 ft 158 kts 170°
2026-05-07 05:07 60.01052 159.63908 7791 ft 158 kts 170°
2026-05-07 05:07 59.99950 159.63967 7789 ft 158 kts 170°
2026-05-07 05:07 59.98849 159.64027 7787 ft 158 kts 171°
2026-05-07 05:08 59.97749 159.64081 7784 ft 158 kts 171°
2026-05-07 05:08 59.96645 159.64135 7786 ft 158 kts 171°
2026-05-07 05:08 59.95540 159.64189 7785 ft 159 kts 171°
2026-05-07 05:08 59.94806 159.64222 7786 ft 159 kts 171°
2026-05-07 05:09 59.93698 159.64285 7787 ft 159 kts 171°
2026-05-07 05:09 59.92589 159.64338 7781 ft 159 kts 171°
2026-05-07 05:09 59.91475 159.64392 7781 ft 159 kts 171°
2026-05-07 05:09 59.90378 159.64450 7781 ft 159 kts 171°
2026-05-07 05:10 59.89272 159.64505 7779 ft 159 kts 171°
2026-05-07 05:10 59.88156 159.64557 7778 ft 160 kts 171°
2026-05-07 05:10 59.87043 159.64615 7778 ft 160 kts 171°
2026-05-07 05:10 59.85926 159.64669 7778 ft 160 kts 171°
2026-05-07 05:11 59.84825 159.64725 7774 ft 160 kts 171°
2026-05-07 05:11 59.83709 159.64781 7773 ft 160 kts 171°
2026-05-07 05:11 59.82593 159.64839 7774 ft 160 kts 171°
2026-05-07 05:11 59.81475 159.64892 7773 ft 160 kts 171°
2026-05-07 05:12 59.80367 159.64944 7771 ft 160 kts 171°
2026-05-07 05:12 59.79249 159.65000 7772 ft 160 kts 171°
2026-05-07 05:12 59.78129 159.65056 7768 ft 161 kts 171°
2026-05-07 05:12 59.77005 159.65114 7771 ft 161 kts 171°
2026-05-07 05:13 59.75886 159.65170 7773 ft 161 kts 172°
2026-05-07 05:13 59.74780 159.65225 7767 ft 161 kts 172°
2026-05-07 05:13 59.73654 159.65280 7768 ft 161 kts 172°
2026-05-07 05:13 59.72528 159.65335 7763 ft 161 kts 172°
2026-05-07 05:14 59.71402 159.65391 7761 ft 161 kts 172°
2026-05-07 05:14 59.70278 159.65447 7761 ft 161 kts 172°
2026-05-07 05:14 59.69167 159.65503 7760 ft 161 kts 172°
2026-05-07 05:14 59.68028 159.65560 7758 ft 161 kts 172°
2026-05-07 05:15 59.66932 159.65728 7761 ft 158 kts 163°
2026-05-07 05:15 59.65847 159.66145 7751 ft 161 kts 169°
2026-05-07 05:15 59.64711 159.65985 7750 ft 165 kts 180°
2026-05-07 05:15 59.63572 159.65699 7747 ft 165 kts 180°
2026-05-07 05:16 59.62432 159.65410 7747 ft 165 kts 180°
2026-05-07 05:16 59.61283 159.65122 7741 ft 165 kts 180°
2026-05-07 05:16 59.60160 159.64842 7743 ft 165 kts 180°
2026-05-07 05:16 59.59014 159.64553 7742 ft 165 kts 180°
2026-05-07 05:17 59.57875 159.64266 7740 ft 165 kts 180°
2026-05-07 05:17 59.56726 159.63978 7685 ft 162 kts 180°
2026-05-07 05:17 59.55673 159.63690 7456 ft 145 kts 179°
2026-05-07 05:17 59.54708 159.63394 7273 ft 136 kts 179°
2026-05-07 05:18 59.53797 159.63090 7104 ft 131 kts 179°
2026-05-07 05:18 59.52914 159.62776 6931 ft 129 kts 179°
2026-05-07 05:18 59.52033 159.62449 6775 ft 128 kts 179°
2026-05-07 05:18 59.51164 159.62115 6619 ft 127 kts 179°
2026-05-07 05:19 59.50297 159.61771 6467 ft 126 kts 180°
2026-05-07 05:19 59.49439 159.61424 6316 ft 126 kts 180°
2026-05-07 05:19 59.48592 159.61075 6164 ft 125 kts 179°
2026-05-07 05:19 59.47741 159.60714 6003 ft 125 kts 180°
2026-05-07 05:20 59.46891 159.60351 5839 ft 125 kts 180°
2026-05-07 05:20 59.46039 159.59993 5679 ft 125 kts 179°
2026-05-07 05:20 59.45183 159.59641 5516 ft 126 kts 180°
2026-05-07 05:20 59.44316 159.59291 5356 ft 127 kts 180°
2026-05-07 05:21 59.43451 159.58943 5200 ft 128 kts 180°
2026-05-07 05:21 59.41694 159.58259 4879 ft 129 kts 179°
2026-05-07 05:21 59.40807 159.57918 4718 ft 129 kts 179°
2026-05-07 05:22 59.39919 159.57578 4566 ft 130 kts 180°
2026-05-07 05:22 59.39030 159.57241 4407 ft 131 kts 179°
2026-05-07 05:22 59.38127 159.56910 4239 ft 132 kts 179°
2026-05-07 05:22 59.37222 159.56581 4083 ft 132 kts 179°
2026-05-07 05:23 59.36326 159.56255 3921 ft 133 kts 179°
2026-05-07 05:23 59.35411 159.55927 3759 ft 134 kts 180°
2026-05-07 05:23 59.34488 159.55606 3599 ft 135 kts 180°
2026-05-07 05:23 59.33558 159.55299 3438 ft 136 kts 179°
2026-05-07 05:24 59.32619 159.54985 3281 ft 136 kts 180°
2026-05-07 05:24 59.31684 159.54689 3120 ft 136 kts 179°
2026-05-07 05:24 59.30747 159.54401 2962 ft 137 kts 180°
2026-05-07 05:24 59.29802 159.54117 2807 ft 137 kts 180°
2026-05-07 05:25 59.28863 159.53843 2650 ft 138 kts 180°
2026-05-07 05:25 59.27908 159.53580 2491 ft 139 kts 179°
2026-05-07 05:25 59.26944 159.53318 2332 ft 140 kts 180°
2026-05-07 05:25 59.25976 159.53055 2173 ft 140 kts 180°
2026-05-07 05:26 59.25010 159.52797 2015 ft 140 kts 179°
2026-05-07 05:26 59.24041 159.52542 1852 ft 141 kts 179°
2026-05-07 05:26 59.23068 159.52286 1683 ft 141 kts 180°
2026-05-07 05:26 59.22099 159.52034 1539 ft 142 kts 179°
2026-05-07 05:27 59.21114 159.51786 1381 ft 143 kts 179°
2026-05-07 05:27 59.20125 159.51540 1211 ft 143 kts 179°
2026-05-07 05:27 59.19132 159.51292 1027 ft 144 kts 180°
2026-05-07 05:27 59.18127 159.51067 836 ft 145 kts 180°
2026-05-07 05:28 59.17142 159.50858 828 ft 139 kts 178°
2026-05-07 05:28 59.16218 159.51062 817 ft 129 kts 153°
2026-05-07 05:28 59.15425 159.51795 818 ft 125 kts 146°
2026-05-07 05:28 59.14700 159.52685 817 ft 121 kts 130°
2026-05-07 05:29 59.14185 159.53940 813 ft 118 kts 119°
2026-05-07 05:29 59.13719 159.55249 815 ft 116 kts 116°
2026-05-07 05:29 59.13310 159.56609 815 ft 117 kts 115°
2026-05-07 05:29 59.12914 159.57965 817 ft 117 kts 110°
2026-05-07 05:30 59.12629 159.59443 815 ft 117 kts 104°
2026-05-07 05:30 59.12358 159.60936 815 ft 116 kts 103°
2026-05-07 05:30 59.12147 159.62453 815 ft 117 kts 100°
2026-05-07 05:30 59.11940 159.63986 815 ft 117 kts 101°
2026-05-07 05:31 59.11732 159.65499 815 ft 117 kts 101°
2026-05-07 05:31 59.11522 159.67036 811 ft 118 kts 104°
2026-05-07 05:31 59.11159 159.68458 827 ft 111 kts 115°
2026-05-07 05:31 59.10824 159.69618 834 ft 92 kts 112°
2026-05-07 05:32 59.10523 159.70682 807 ft 88 kts 109°
2026-05-07 05:32 59.10225 159.71694 805 ft 85 kts 108°
2026-05-07 05:32 59.09970 159.72790 686 ft 90 kts 107°
2026-05-07 05:32 59.09722 159.73859 683 ft 86 kts 107°
2026-05-07 05:33 59.09472 159.74916 634 ft 87 kts 105°
2026-05-07 05:33 59.09227 159.76030 538 ft 91 kts 100°
2026-05-07 05:33 59.09016 159.77218 500 ft 89 kts 100°
2026-05-07 05:33 59.08849 159.78322 525 ft 79 kts 96°
2026-05-07 05:34 59.08705 159.79322 520 ft 75 kts 96°
2026-05-07 05:34 59.08600 159.80316 486 ft 76 kts 88°
2026-05-07 05:34 59.08549 159.81342 444 ft 75 kts 85°
2026-05-07 05:34 59.08509 159.82354 411 ft 74 kts 86°
2026-05-07 05:35 59.08468 159.83332 404 ft 73 kts 85°
2026-05-07 05:35 59.08517 159.84308 386 ft 74 kts 71°
2026-05-07 05:35 59.08565 159.85325 295 ft 80 kts 79°
2026-05-07 05:35 59.08572 159.86053 230 ft 79 kts 84°
2026-05-07 05:36 59.08503 159.87122 150 ft 78 kts 94°
2026-05-07 05:36 59.08363 159.88124 87 ft 76 kts 98°
2026-05-07 05:36 59.08218 159.89049 76 ft 67 kts 98°
2026-05-07 05:36 59.08108 159.89784 85 ft 29 kts 106°
2026-05-07 05:37 59.08067 159.90016 87 ft 8 kts 340°
2026-05-07 05:37 59.08090 159.89854 87 ft 17 kts 290°
2026-05-07 05:37 59.08139 159.89571 84 ft 26 kts 286°
2026-05-07 05:37 59.08196 159.89254 78 ft 15 kts 338°
2026-05-07 05:38 59.08233 159.89261 76 ft 0 kts 15°
2026-05-07 05:38 59.08235 159.89262 78 ft 1 kts 13°
2026-05-07 05:38 59.08267 159.89281 87 ft 7 kts 50°
2026-05-07 05:39 59.08275 159.89373 92 ft 6 kts 43°
2026-05-07 05:39 59.08283 159.89381 95 ft 0 kts 12°
2026-05-07 05:39 59.08298 159.89385 100 ft 1 kts
2026-05-07 05:39 59.08305 159.89388 102 ft 1 kts 14°
2026-05-07 05:40 59.08306 159.89389 103 ft 0 kts 14°
2026-05-07 05:40 59.08300 159.89385 101 ft 0 kts 15°
2026-05-07 05:41 59.08291 159.89380 98 ft 7 kts 15°
2026-05-07 05:41 59.08232 159.89348 86 ft 0 kts 16°
2026-05-07 05:41 59.08233 159.89349 87 ft 0 kts 15°
2026-05-07 05:42 59.08247 159.89353 89 ft 14 kts
2026-05-07 05:42 59.08305 159.89388 102 ft 0 kts